sensor_id;sensor_type;location;lat;lon;timestamp;P1;durP1;ratioP1;P2;durP2;ratioP2
23072;SDS011;34865;51.046;3.732;2022-08-01T00:01:51;14.45;;;5.88;;
23072;SDS011;34865;51.046;3.732;2022-08-01T00:04:17;13.38;;;6.78;;
23072;SDS011;34865;51.046;3.732;2022-08-01T00:06:42;15.13;;;6.97;;
23072;SDS011;34865;51.046;3.732;2022-08-01T00:09:08;12.50;;;6.38;;
23072;SDS011;34865;51.046;3.732;2022-08-01T00:11:34;10.35;;;6.63;;
23072;SDS011;34865;51.046;3.732;2022-08-01T00:13:59;12.85;;;6.63;;
23072;SDS011;34865;51.046;3.732;2022-08-01T00:16:25;11.30;;;7.15;;
23072;SDS011;34865;51.046;3.732;2022-08-01T00:18:51;13.15;;;7.93;;
23072;SDS011;34865;51.046;3.732;2022-08-01T00:21:17;18.73;;;9.18;;
23072;SDS011;34865;51.046;3.732;2022-08-01T00:23:43;14.32;;;8.85;;
23072;SDS011;34865;51.046;3.732;2022-08-01T00:26:10;23.83;;;12.15;;
23072;SDS011;34865;51.046;3.732;2022-08-01T00:28:38;20.75;;;9.90;;
23072;SDS011;34865;51.046;3.732;2022-08-01T00:31:04;22.83;;;10.75;;
23072;SDS011;34865;51.046;3.732;2022-08-01T00:33:30;21.88;;;10.98;;
23072;SDS011;34865;51.046;3.732;2022-08-01T00:35:56;22.25;;;10.50;;
23072;SDS011;34865;51.046;3.732;2022-08-01T00:38:21;23.08;;;11.00;;
23072;SDS011;34865;51.046;3.732;2022-08-01T00:40:47;28.83;;;13.13;;
23072;SDS011;34865;51.046;3.732;2022-08-01T00:43:13;29.15;;;12.15;;
23072;SDS011;34865;51.046;3.732;2022-08-01T00:45:39;33.22;;;12.32;;
23072;SDS011;34865;51.046;3.732;2022-08-01T00:48:05;23.83;;;11.80;;
23072;SDS011;34865;51.046;3.732;2022-08-01T00:50:31;24.05;;;12.38;;
23072;SDS011;34865;51.046;3.732;2022-08-01T00:52:57;23.52;;;13.18;;
23072;SDS011;34865;51.046;3.732;2022-08-01T00:55:24;23.30;;;11.88;;
23072;SDS011;34865;51.046;3.732;2022-08-01T00:57:51;26.27;;;12.50;;
23072;SDS011;34865;51.046;3.732;2022-08-01T01:00:16;24.05;;;13.20;;
23072;SDS011;34865;51.046;3.732;2022-08-01T01:02:42;25.98;;;14.27;;
23072;SDS011;34865;51.046;3.732;2022-08-01T01:05:08;29.88;;;14.63;;
23072;SDS011;34865;51.046;3.732;2022-08-01T01:12:59;31.60;;;18.17;;
23072;SDS011;34865;51.046;3.732;2022-08-01T01:15:44;28.95;;;17.63;;
23072;SDS011;34865;51.046;3.732;2022-08-01T01:18:20;31.42;;;19.15;;
23072;SDS011;34865;51.046;3.732;2022-08-01T01:20:51;36.28;;;18.40;;
23072;SDS011;34865;51.046;3.732;2022-08-01T01:23:41;33.35;;;18.45;;
23072;SDS011;34865;51.046;3.732;2022-08-01T01:29:39;47.30;;;21.70;;
23072;SDS011;34865;51.046;3.732;2022-08-01T01:32:06;39.92;;;22.08;;
23072;SDS011;34865;51.046;3.732;2022-08-01T01:34:37;45.05;;;23.70;;
23072;SDS011;34865;51.046;3.732;2022-08-01T01:37:06;47.47;;;23.73;;
23072;SDS011;34865;51.046;3.732;2022-08-01T01:39:37;41.60;;;22.38;;
23072;SDS011;34865;51.046;3.732;2022-08-01T01:42:05;41.22;;;23.52;;
23072;SDS011;34865;51.046;3.732;2022-08-01T01:44:32;39.38;;;23.63;;
23072;SDS011;34865;51.046;3.732;2022-08-01T01:47:00;42.88;;;22.83;;
23072;SDS011;34865;51.046;3.732;2022-08-01T01:49:27;36.92;;;20.25;;
23072;SDS011;34865;51.046;3.732;2022-08-01T01:51:55;37.65;;;21.25;;
23072;SDS011;34865;51.046;3.732;2022-08-01T01:54:22;31.77;;;19.52;;
23072;SDS011;34865;51.046;3.732;2022-08-01T01:57:00;21.30;;;12.00;;
23072;SDS011;34865;51.046;3.732;2022-08-01T01:59:29;20.92;;;8.85;;
23072;SDS011;34865;51.046;3.732;2022-08-01T02:01:58;20.77;;;9.45;;
23072;SDS011;34865;51.046;3.732;2022-08-01T02:04:27;27.08;;;9.85;;
23072;SDS011;34865;51.046;3.732;2022-08-01T02:06:54;25.70;;;9.40;;
23072;SDS011;34865;51.046;3.732;2022-08-01T02:09:22;20.52;;;8.40;;
23072;SDS011;34865;51.046;3.732;2022-08-01T02:11:50;12.75;;;8.32;;
23072;SDS011;34865;51.046;3.732;2022-08-01T02:14:17;22.95;;;8.60;;
23072;SDS011;34865;51.046;3.732;2022-08-01T02:16:45;21.13;;;8.82;;
23072;SDS011;34865;51.046;3.732;2022-08-01T02:19:13;16.50;;;8.93;;
23072;SDS011;34865;51.046;3.732;2022-08-01T02:24:44;17.40;;;8.82;;
23072;SDS011;34865;51.046;3.732;2022-08-01T02:27:24;18.17;;;7.55;;
23072;SDS011;34865;51.046;3.732;2022-08-01T02:29:54;14.95;;;7.25;;
23072;SDS011;34865;51.046;3.732;2022-08-01T02:32:31;11.63;;;7.07;;
23072;SDS011;34865;51.046;3.732;2022-08-01T02:35:07;16.73;;;6.82;;
23072;SDS011;34865;51.046;3.732;2022-08-01T02:37:39;17.52;;;7.57;;
23072;SDS011;34865;51.046;3.732;2022-08-01T02:40:06;16.30;;;5.72;;
23072;SDS011;34865;51.046;3.732;2022-08-01T02:42:34;17.83;;;6.80;;
23072;SDS011;34865;51.046;3.732;2022-08-01T02:45:03;15.60;;;7.00;;
23072;SDS011;34865;51.046;3.732;2022-08-01T02:47:30;7.95;;;5.20;;
23072;SDS011;34865;51.046;3.732;2022-08-01T02:49:57;17.20;;;6.15;;
23072;SDS011;34865;51.046;3.732;2022-08-01T02:52:25;12.07;;;5.20;;
23072;SDS011;34865;51.046;3.732;2022-08-01T02:54:56;20.23;;;5.78;;
23072;SDS011;34865;51.046;3.732;2022-08-01T02:57:23;9.30;;;4.97;;
23072;SDS011;34865;51.046;3.732;2022-08-01T02:59:49;13.43;;;4.85;;
23072;SDS011;34865;51.046;3.732;2022-08-01T03:02:17;10.00;;;5.40;;
23072;SDS011;34865;51.046;3.732;2022-08-01T03:04:44;8.20;;;4.20;;
23072;SDS011;34865;51.046;3.732;2022-08-01T03:07:12;8.65;;;4.00;;
23072;SDS011;34865;51.046;3.732;2022-08-01T03:09:39;9.88;;;3.55;;
23072;SDS011;34865;51.046;3.732;2022-08-01T03:12:11;9.95;;;4.00;;
23072;SDS011;34865;51.046;3.732;2022-08-01T03:14:42;6.47;;;3.55;;
23072;SDS011;34865;51.046;3.732;2022-08-01T03:17:09;7.47;;;3.30;;
23072;SDS011;34865;51.046;3.732;2022-08-01T03:19:36;5.30;;;3.08;;
23072;SDS011;34865;51.046;3.732;2022-08-01T03:22:06;8.50;;;3.22;;
23072;SDS011;34865;51.046;3.732;2022-08-01T03:24:34;12.95;;;3.28;;
23072;SDS011;34865;51.046;3.732;2022-08-01T03:27:02;11.48;;;2.63;;
23072;SDS011;34865;51.046;3.732;2022-08-01T03:29:28;5.38;;;2.95;;
23072;SDS011;34865;51.046;3.732;2022-08-01T03:31:56;6.20;;;2.67;;
23072;SDS011;34865;51.046;3.732;2022-08-01T03:34:23;5.93;;;2.15;;
23072;SDS011;34865;51.046;3.732;2022-08-01T03:36:50;4.97;;;2.75;;
23072;SDS011;34865;51.046;3.732;2022-08-01T03:40:09;5.43;;;2.75;;
23072;SDS011;34865;51.046;3.732;2022-08-01T03:42:37;8.45;;;2.85;;
23072;SDS011;34865;51.046;3.732;2022-08-01T03:45:07;10.85;;;3.35;;
23072;SDS011;34865;51.046;3.732;2022-08-01T03:47:35;3.58;;;3.00;;
23072;SDS011;34865;51.046;3.732;2022-08-01T03:50:02;7.40;;;3.72;;
23072;SDS011;34865;51.046;3.732;2022-08-01T03:52:29;9.80;;;3.45;;
23072;SDS011;34865;51.046;3.732;2022-08-01T03:54:58;4.47;;;3.13;;
23072;SDS011;34865;51.046;3.732;2022-08-01T03:57:27;7.25;;;3.50;;
23072;SDS011;34865;51.046;3.732;2022-08-01T03:59:55;6.82;;;3.70;;
23072;SDS011;34865;51.046;3.732;2022-08-01T04:02:23;6.68;;;3.17;;
23072;SDS011;34865;51.046;3.732;2022-08-01T04:04:50;4.63;;;2.83;;
23072;SDS011;34865;51.046;3.732;2022-08-01T04:07:23;5.53;;;3.45;;
23072;SDS011;34865;51.046;3.732;2022-08-01T04:09:50;8.05;;;3.83;;
23072;SDS011;34865;51.046;3.732;2022-08-01T04:12:16;6.55;;;3.67;;
23072;SDS011;34865;51.046;3.732;2022-08-01T04:14:42;4.75;;;3.40;;
23072;SDS011;34865;51.046;3.732;2022-08-01T04:17:08;6.10;;;3.58;;
23072;SDS011;34865;51.046;3.732;2022-08-01T04:19:34;7.82;;;3.47;;
23072;SDS011;34865;51.046;3.732;2022-08-01T04:21:59;4.88;;;4.00;;
23072;SDS011;34865;51.046;3.732;2022-08-01T04:24:25;5.60;;;4.32;;
23072;SDS011;34865;51.046;3.732;2022-08-01T04:26:54;7.55;;;4.10;;
23072;SDS011;34865;51.046;3.732;2022-08-01T04:29:23;6.60;;;3.58;;
23072;SDS011;34865;51.046;3.732;2022-08-01T04:31:50;7.55;;;4.25;;
23072;SDS011;34865;51.046;3.732;2022-08-01T04:34:20;4.97;;;3.28;;
23072;SDS011;34865;51.046;3.732;2022-08-01T04:36:48;11.00;;;4.05;;
23072;SDS011;34865;51.046;3.732;2022-08-01T04:39:16;8.13;;;3.72;;
23072;SDS011;34865;51.046;3.732;2022-08-01T04:41:44;5.53;;;3.33;;
23072;SDS011;34865;51.046;3.732;2022-08-01T04:44:12;7.68;;;4.05;;
23072;SDS011;34865;51.046;3.732;2022-08-01T04:46:39;4.50;;;3.28;;
23072;SDS011;34865;51.046;3.732;2022-08-01T04:49:06;13.52;;;3.60;;
23072;SDS011;34865;51.046;3.732;2022-08-01T04:51:34;6.30;;;4.38;;
23072;SDS011;34865;51.046;3.732;2022-08-01T04:54:00;7.72;;;3.85;;
23072;SDS011;34865;51.046;3.732;2022-08-01T04:56:26;4.25;;;3.20;;
23072;SDS011;34865;51.046;3.732;2022-08-01T04:58:52;5.93;;;3.95;;
23072;SDS011;34865;51.046;3.732;2022-08-01T05:01:37;7.63;;;3.67;;
23072;SDS011;34865;51.046;3.732;2022-08-01T05:04:03;6.35;;;3.50;;
23072;SDS011;34865;51.046;3.732;2022-08-01T05:06:29;8.63;;;3.88;;
23072;SDS011;34865;51.046;3.732;2022-08-01T05:08:55;15.40;;;4.38;;
23072;SDS011;34865;51.046;3.732;2022-08-01T05:11:20;7.00;;;3.55;;
23072;SDS011;34865;51.046;3.732;2022-08-01T05:13:47;5.78;;;3.35;;
23072;SDS011;34865;51.046;3.732;2022-08-01T05:16:13;19.65;;;4.43;;
23072;SDS011;34865;51.046;3.732;2022-08-01T05:18:38;14.85;;;4.53;;
23072;SDS011;34865;51.046;3.732;2022-08-01T05:21:04;4.63;;;3.65;;
23072;SDS011;34865;51.046;3.732;2022-08-01T05:23:30;11.15;;;4.13;;
23072;SDS011;34865;51.046;3.732;2022-08-01T05:25:55;4.55;;;3.60;;
23072;SDS011;34865;51.046;3.732;2022-08-01T05:28:21;4.90;;;3.85;;
23072;SDS011;34865;51.046;3.732;2022-08-01T05:30:46;7.50;;;3.47;;
23072;SDS011;34865;51.046;3.732;2022-08-01T05:33:12;4.97;;;3.78;;
23072;SDS011;34865;51.046;3.732;2022-08-01T05:35:38;7.15;;;3.35;;
23072;SDS011;34865;51.046;3.732;2022-08-01T05:38:03;7.65;;;3.03;;
23072;SDS011;34865;51.046;3.732;2022-08-01T05:40:29;4.68;;;3.67;;
23072;SDS011;34865;51.046;3.732;2022-08-01T05:42:54;7.22;;;3.42;;
23072;SDS011;34865;51.046;3.732;2022-08-01T05:45:20;6.22;;;3.70;;
23072;SDS011;34865;51.046;3.732;2022-08-01T05:47:46;8.02;;;3.40;;
23072;SDS011;34865;51.046;3.732;2022-08-01T05:50:11;6.03;;;2.95;;
23072;SDS011;34865;51.046;3.732;2022-08-01T05:52:37;4.10;;;3.00;;
23072;SDS011;34865;51.046;3.732;2022-08-01T05:55:03;10.18;;;4.18;;
23072;SDS011;34865;51.046;3.732;2022-08-01T05:57:29;4.72;;;2.95;;
23072;SDS011;34865;51.046;3.732;2022-08-01T05:59:55;11.18;;;3.78;;
23072;SDS011;34865;51.046;3.732;2022-08-01T06:02:21;7.90;;;3.22;;
23072;SDS011;34865;51.046;3.732;2022-08-01T06:04:46;11.18;;;4.07;;
23072;SDS011;34865;51.046;3.732;2022-08-01T06:07:12;7.50;;;4.30;;
23072;SDS011;34865;51.046;3.732;2022-08-01T06:09:37;6.07;;;2.72;;
23072;SDS011;34865;51.046;3.732;2022-08-01T06:12:03;13.80;;;4.72;;
23072;SDS011;34865;51.046;3.732;2022-08-01T06:14:29;4.18;;;3.30;;
23072;SDS011;34865;51.046;3.732;2022-08-01T06:16:55;3.78;;;2.75;;
23072;SDS011;34865;51.046;3.732;2022-08-01T06:19:20;5.70;;;2.60;;
23072;SDS011;34865;51.046;3.732;2022-08-01T06:21:46;6.13;;;2.85;;
23072;SDS011;34865;51.046;3.732;2022-08-01T06:24:12;3.58;;;2.33;;
23072;SDS011;34865;51.046;3.732;2022-08-01T06:26:37;5.18;;;2.72;;
23072;SDS011;34865;51.046;3.732;2022-08-01T06:29:03;4.03;;;2.58;;
23072;SDS011;34865;51.046;3.732;2022-08-01T06:31:28;5.15;;;2.35;;
23072;SDS011;34865;51.046;3.732;2022-08-01T06:33:56;3.28;;;2.50;;
23072;SDS011;34865;51.046;3.732;2022-08-01T06:36:22;5.55;;;2.30;;
23072;SDS011;34865;51.046;3.732;2022-08-01T06:38:47;3.60;;;2.50;;
23072;SDS011;34865;51.046;3.732;2022-08-01T06:41:13;5.32;;;2.75;;
23072;SDS011;34865;51.046;3.732;2022-08-01T06:43:39;5.53;;;2.30;;
23072;SDS011;34865;51.046;3.732;2022-08-01T06:46:04;8.25;;;2.75;;
23072;SDS011;34865;51.046;3.732;2022-08-01T06:48:30;6.80;;;2.30;;
23072;SDS011;34865;51.046;3.732;2022-08-01T06:50:56;5.55;;;2.47;;
23072;SDS011;34865;51.046;3.732;2022-08-01T06:53:36;7.38;;;2.28;;
23072;SDS011;34865;51.046;3.732;2022-08-01T06:56:03;6.07;;;2.47;;
23072;SDS011;34865;51.046;3.732;2022-08-01T06:58:29;6.45;;;2.38;;
23072;SDS011;34865;51.046;3.732;2022-08-01T07:00:55;5.00;;;2.00;;
23072;SDS011;34865;51.046;3.732;2022-08-01T07:03:21;6.05;;;2.97;;
23072;SDS011;34865;51.046;3.732;2022-08-01T07:05:46;6.20;;;2.85;;
23072;SDS011;34865;51.046;3.732;2022-08-01T07:08:12;6.68;;;2.30;;
23072;SDS011;34865;51.046;3.732;2022-08-01T07:10:37;5.97;;;2.65;;
23072;SDS011;34865;51.046;3.732;2022-08-01T07:13:03;5.25;;;2.90;;
23072;SDS011;34865;51.046;3.732;2022-08-01T07:15:29;9.75;;;3.05;;
23072;SDS011;34865;51.046;3.732;2022-08-01T07:17:54;14.52;;;3.00;;
23072;SDS011;34865;51.046;3.732;2022-08-01T07:20:21;16.75;;;3.05;;
23072;SDS011;34865;51.046;3.732;2022-08-01T07:22:47;7.15;;;1.88;;
23072;SDS011;34865;51.046;3.732;2022-08-01T07:25:13;4.40;;;2.00;;
23072;SDS011;34865;51.046;3.732;2022-08-01T07:27:38;5.18;;;2.10;;
23072;SDS011;34865;51.046;3.732;2022-08-01T07:30:04;6.65;;;2.13;;
23072;SDS011;34865;51.046;3.732;2022-08-01T07:32:31;9.13;;;1.67;;
23072;SDS011;34865;51.046;3.732;2022-08-01T07:34:56;2.75;;;1.83;;
23072;SDS011;34865;51.046;3.732;2022-08-01T07:37:22;2.17;;;1.40;;
23072;SDS011;34865;51.046;3.732;2022-08-01T07:39:49;2.33;;;1.67;;
23072;SDS011;34865;51.046;3.732;2022-08-01T07:42:14;6.70;;;2.00;;
23072;SDS011;34865;51.046;3.732;2022-08-01T07:44:40;2.70;;;1.50;;
23072;SDS011;34865;51.046;3.732;2022-08-01T07:47:06;5.60;;;1.67;;
23072;SDS011;34865;51.046;3.732;2022-08-01T07:49:32;1.95;;;1.55;;
23072;SDS011;34865;51.046;3.732;2022-08-01T07:51:58;6.18;;;1.40;;
23072;SDS011;34865;51.046;3.732;2022-08-01T07:54:23;3.15;;;2.03;;
23072;SDS011;34865;51.046;3.732;2022-08-01T07:56:50;5.90;;;1.65;;
23072;SDS011;34865;51.046;3.732;2022-08-01T07:59:16;10.73;;;1.63;;
23072;SDS011;34865;51.046;3.732;2022-08-01T08:01:47;6.43;;;1.33;;
23072;SDS011;34865;51.046;3.732;2022-08-01T08:04:14;4.85;;;2.00;;
23072;SDS011;34865;51.046;3.732;2022-08-01T08:06:39;2.42;;;1.17;;
23072;SDS011;34865;51.046;3.732;2022-08-01T08:09:06;2.17;;;1.35;;
23072;SDS011;34865;51.046;3.732;2022-08-01T08:11:32;4.22;;;1.00;;
23072;SDS011;34865;51.046;3.732;2022-08-01T08:13:58;4.30;;;1.70;;
23072;SDS011;34865;51.046;3.732;2022-08-01T08:16:23;3.08;;;1.50;;
23072;SDS011;34865;51.046;3.732;2022-08-01T08:18:49;16.17;;;2.50;;
23072;SDS011;34865;51.046;3.732;2022-08-01T08:21:16;1.70;;;1.38;;
23072;SDS011;34865;51.046;3.732;2022-08-01T08:23:45;3.63;;;1.90;;
23072;SDS011;34865;51.046;3.732;2022-08-01T08:26:30;4.78;;;1.80;;
23072;SDS011;34865;51.046;3.732;2022-08-01T08:28:55;3.20;;;1.77;;
23072;SDS011;34865;51.046;3.732;2022-08-01T08:31:21;4.03;;;2.33;;
23072;SDS011;34865;51.046;3.732;2022-08-01T08:33:47;4.07;;;2.50;;
23072;SDS011;34865;51.046;3.732;2022-08-01T08:36:13;5.97;;;2.88;;
23072;SDS011;34865;51.046;3.732;2022-08-01T08:38:39;3.80;;;2.05;;
23072;SDS011;34865;51.046;3.732;2022-08-01T08:41:05;3.88;;;2.30;;
23072;SDS011;34865;51.046;3.732;2022-08-01T08:43:31;3.45;;;1.90;;
23072;SDS011;34865;51.046;3.732;2022-08-01T08:45:57;5.03;;;2.35;;
23072;SDS011;34865;51.046;3.732;2022-08-01T08:48:23;3.15;;;2.08;;
23072;SDS011;34865;51.046;3.732;2022-08-01T08:50:49;10.15;;;1.40;;
23072;SDS011;34865;51.046;3.732;2022-08-01T08:53:15;1.70;;;1.55;;
23072;SDS011;34865;51.046;3.732;2022-08-01T08:55:42;5.70;;;1.80;;
23072;SDS011;34865;51.046;3.732;2022-08-01T08:58:12;4.25;;;1.80;;
23072;SDS011;34865;51.046;3.732;2022-08-01T09:00:39;3.53;;;1.52;;
23072;SDS011;34865;51.046;3.732;2022-08-01T09:03:05;4.85;;;1.55;;
23072;SDS011;34865;51.046;3.732;2022-08-01T09:05:31;5.05;;;1.67;;
23072;SDS011;34865;51.046;3.732;2022-08-01T09:07:57;1.70;;;1.30;;
23072;SDS011;34865;51.046;3.732;2022-08-01T09:10:22;1.70;;;0.85;;
23072;SDS011;34865;51.046;3.732;2022-08-01T09:18:07;4.43;;;1.50;;
23072;SDS011;34865;51.046;3.732;2022-08-01T09:20:33;2.22;;;1.73;;
23072;SDS011;34865;51.046;3.732;2022-08-01T09:23:02;4.75;;;1.75;;
23072;SDS011;34865;51.046;3.732;2022-08-01T09:25:28;3.20;;;1.55;;
23072;SDS011;34865;51.046;3.732;2022-08-01T09:28:02;4.82;;;1.67;;
23072;SDS011;34865;51.046;3.732;2022-08-01T09:30:35;4.05;;;1.50;;
23072;SDS011;34865;51.046;3.732;2022-08-01T09:33:04;4.47;;;1.88;;
23072;SDS011;34865;51.046;3.732;2022-08-01T09:35:34;4.57;;;1.50;;
23072;SDS011;34865;51.046;3.732;2022-08-01T09:40:57;3.40;;;1.58;;
23072;SDS011;34865;51.046;3.732;2022-08-01T09:43:28;5.38;;;1.73;;
23072;SDS011;34865;51.046;3.732;2022-08-01T09:45:57;6.18;;;3.00;;
23072;SDS011;34865;51.046;3.732;2022-08-01T09:48:25;4.63;;;2.60;;
23072;SDS011;34865;51.046;3.732;2022-08-01T09:50:54;6.03;;;1.95;;
23072;SDS011;34865;51.046;3.732;2022-08-01T09:53:20;3.53;;;1.48;;
23072;SDS011;34865;51.046;3.732;2022-08-01T09:55:48;3.17;;;1.83;;
23072;SDS011;34865;51.046;3.732;2022-08-01T09:58:17;5.55;;;1.98;;
23072;SDS011;34865;51.046;3.732;2022-08-01T10:00:44;4.93;;;1.52;;
23072;SDS011;34865;51.046;3.732;2022-08-01T10:03:26;4.95;;;2.25;;
23072;SDS011;34865;51.046;3.732;2022-08-01T10:05:54;2.75;;;1.55;;
23072;SDS011;34865;51.046;3.732;2022-08-01T10:08:20;7.75;;;2.28;;
23072;SDS011;34865;51.046;3.732;2022-08-01T10:11:07;3.63;;;2.10;;
23072;SDS011;34865;51.046;3.732;2022-08-01T10:13:34;4.18;;;2.10;;
23072;SDS011;34865;51.046;3.732;2022-08-01T10:16:06;4.60;;;1.65;;
23072;SDS011;34865;51.046;3.732;2022-08-01T10:18:34;3.17;;;1.85;;
23072;SDS011;34865;51.046;3.732;2022-08-01T10:21:02;4.03;;;1.95;;
23072;SDS011;34865;51.046;3.732;2022-08-01T10:23:35;2.83;;;1.50;;
23072;SDS011;34865;51.046;3.732;2022-08-01T10:26:01;2.25;;;1.30;;
23072;SDS011;34865;51.046;3.732;2022-08-01T10:28:29;2.00;;;1.50;;
23072;SDS011;34865;51.046;3.732;2022-08-01T10:30:56;3.38;;;1.48;;
23072;SDS011;34865;51.046;3.732;2022-08-01T10:33:24;5.43;;;1.58;;
23072;SDS011;34865;51.046;3.732;2022-08-01T10:35:50;6.32;;;1.92;;
23072;SDS011;34865;51.046;3.732;2022-08-01T10:38:16;5.78;;;1.70;;
23072;SDS011;34865;51.046;3.732;2022-08-01T10:40:42;2.67;;;1.77;;
23072;SDS011;34865;51.046;3.732;2022-08-01T10:43:10;2.25;;;1.67;;
23072;SDS011;34865;51.046;3.732;2022-08-01T10:45:36;3.58;;;1.60;;
23072;SDS011;34865;51.046;3.732;2022-08-01T10:48:03;3.47;;;1.60;;
23072;SDS011;34865;51.046;3.732;2022-08-01T10:50:41;6.18;;;2.13;;
23072;SDS011;34865;51.046;3.732;2022-08-01T10:53:23;11.93;;;2.10;;
23072;SDS011;34865;51.046;3.732;2022-08-01T10:55:58;3.75;;;2.20;;
23072;SDS011;34865;51.046;3.732;2022-08-01T11:03:44;5.40;;;1.90;;
23072;SDS011;34865;51.046;3.732;2022-08-01T11:06:24;2.95;;;2.10;;
23072;SDS011;34865;51.046;3.732;2022-08-01T11:08:52;3.72;;;2.75;;
23072;SDS011;34865;51.046;3.732;2022-08-01T11:11:19;2.90;;;2.05;;
23072;SDS011;34865;51.046;3.732;2022-08-01T11:16:38;3.45;;;1.90;;
23072;SDS011;34865;51.046;3.732;2022-08-01T11:19:05;3.50;;;1.98;;
23072;SDS011;34865;51.046;3.732;2022-08-01T11:32:34;4.82;;;2.10;;
23072;SDS011;34865;51.046;3.732;2022-08-01T11:35:13;3.67;;;2.10;;
23072;SDS011;34865;51.046;3.732;2022-08-01T11:37:39;5.40;;;2.13;;
23072;SDS011;34865;51.046;3.732;2022-08-01T11:42:40;16.17;;;3.03;;
23072;SDS011;34865;51.046;3.732;2022-08-01T11:45:06;7.03;;;2.13;;
23072;SDS011;34865;51.046;3.732;2022-08-01T11:47:44;3.97;;;2.00;;
23072;SDS011;34865;51.046;3.732;2022-08-01T11:50:31;11.07;;;5.07;;
23072;SDS011;34865;51.046;3.732;2022-08-01T11:53:03;3.70;;;2.10;;
23072;SDS011;34865;51.046;3.732;2022-08-01T11:55:30;5.43;;;1.70;;
23072;SDS011;34865;51.046;3.732;2022-08-01T11:58:15;4.85;;;1.75;;
23072;SDS011;34865;51.046;3.732;2022-08-01T12:00:52;5.90;;;2.47;;
23072;SDS011;34865;51.046;3.732;2022-08-01T12:03:23;5.93;;;2.45;;
23072;SDS011;34865;51.046;3.732;2022-08-01T12:05:57;2.30;;;1.50;;
23072;SDS011;34865;51.046;3.732;2022-08-01T12:08:27;7.03;;;2.88;;
23072;SDS011;34865;51.046;3.732;2022-08-01T12:10:54;7.35;;;2.30;;
23072;SDS011;34865;51.046;3.732;2022-08-01T12:13:20;5.97;;;2.10;;
23072;SDS011;34865;51.046;3.732;2022-08-01T12:15:47;5.78;;;2.10;;
23072;SDS011;34865;51.046;3.732;2022-08-01T12:18:15;4.75;;;2.35;;
23072;SDS011;34865;51.046;3.732;2022-08-01T12:20:41;6.50;;;2.17;;
23072;SDS011;34865;51.046;3.732;2022-08-01T12:23:10;6.28;;;2.20;;
23072;SDS011;34865;51.046;3.732;2022-08-01T12:25:37;4.25;;;2.17;;
23072;SDS011;34865;51.046;3.732;2022-08-01T12:28:09;4.65;;;1.83;;
23072;SDS011;34865;51.046;3.732;2022-08-01T12:30:37;8.00;;;2.20;;
23072;SDS011;34865;51.046;3.732;2022-08-01T12:33:04;4.90;;;1.70;;
23072;SDS011;34865;51.046;3.732;2022-08-01T12:35:31;8.68;;;1.80;;
23072;SDS011;34865;51.046;3.732;2022-08-01T12:37:59;4.03;;;1.35;;
23072;SDS011;34865;51.046;3.732;2022-08-01T12:40:47;5.82;;;1.73;;
23072;SDS011;34865;51.046;3.732;2022-08-01T12:43:19;4.32;;;1.55;;
23072;SDS011;34865;51.046;3.732;2022-08-01T12:45:46;6.53;;;1.70;;
23072;SDS011;34865;51.046;3.732;2022-08-01T12:48:15;4.57;;;1.95;;
23072;SDS011;34865;51.046;3.732;2022-08-01T12:50:45;5.93;;;1.98;;
23072;SDS011;34865;51.046;3.732;2022-08-01T12:53:13;3.22;;;1.70;;
23072;SDS011;34865;51.046;3.732;2022-08-01T12:55:44;3.80;;;1.73;;
23072;SDS011;34865;51.046;3.732;2022-08-01T12:58:15;5.03;;;1.90;;
23072;SDS011;34865;51.046;3.732;2022-08-01T13:00:43;5.65;;;1.75;;
23072;SDS011;34865;51.046;3.732;2022-08-01T13:03:10;4.70;;;1.80;;
23072;SDS011;34865;51.046;3.732;2022-08-01T13:08:09;4.95;;;2.33;;
23072;SDS011;34865;51.046;3.732;2022-08-01T13:10:36;5.93;;;2.15;;
23072;SDS011;34865;51.046;3.732;2022-08-01T13:13:02;11.00;;;2.20;;
23072;SDS011;34865;51.046;3.732;2022-08-01T13:15:32;5.03;;;1.80;;
23072;SDS011;34865;51.046;3.732;2022-08-01T13:18:01;5.28;;;1.90;;
23072;SDS011;34865;51.046;3.732;2022-08-01T13:20:46;6.40;;;2.10;;
23072;SDS011;34865;51.046;3.732;2022-08-01T13:23:12;13.88;;;2.63;;
23072;SDS011;34865;51.046;3.732;2022-08-01T13:25:52;6.50;;;2.40;;
23072;SDS011;34865;51.046;3.732;2022-08-01T13:28:24;5.22;;;2.40;;
23072;SDS011;34865;51.046;3.732;2022-08-01T13:31:00;6.43;;;2.30;;
23072;SDS011;34865;51.046;3.732;2022-08-01T13:33:40;4.85;;;1.80;;
23072;SDS011;34865;51.046;3.732;2022-08-01T13:36:06;4.65;;;1.65;;
23072;SDS011;34865;51.046;3.732;2022-08-01T13:38:32;3.60;;;1.38;;
23072;SDS011;34865;51.046;3.732;2022-08-01T13:41:16;3.83;;;1.92;;
23072;SDS011;34865;51.046;3.732;2022-08-01T13:43:42;4.60;;;1.80;;
23072;SDS011;34865;51.046;3.732;2022-08-01T13:46:07;3.78;;;1.60;;
23072;SDS011;34865;51.046;3.732;2022-08-01T13:48:33;4.13;;;1.50;;
23072;SDS011;34865;51.046;3.732;2022-08-01T13:50:59;4.78;;;1.65;;
23072;SDS011;34865;51.046;3.732;2022-08-01T13:53:25;6.78;;;1.25;;
23072;SDS011;34865;51.046;3.732;2022-08-01T13:55:50;5.53;;;1.30;;
23072;SDS011;34865;51.046;3.732;2022-08-01T13:58:16;2.85;;;1.10;;
23072;SDS011;34865;51.046;3.732;2022-08-01T14:00:42;2.88;;;1.05;;
23072;SDS011;34865;51.046;3.732;2022-08-01T14:03:08;2.80;;;1.10;;
23072;SDS011;34865;51.046;3.732;2022-08-01T14:05:35;6.40;;;1.42;;
23072;SDS011;34865;51.046;3.732;2022-08-01T14:08:01;7.07;;;1.48;;
23072;SDS011;34865;51.046;3.732;2022-08-01T14:10:27;3.45;;;1.65;;
23072;SDS011;34865;51.046;3.732;2022-08-01T14:12:54;5.82;;;1.45;;
23072;SDS011;34865;51.046;3.732;2022-08-01T14:15:21;9.40;;;1.65;;
23072;SDS011;34865;51.046;3.732;2022-08-01T14:17:47;4.53;;;1.80;;
23072;SDS011;34865;51.046;3.732;2022-08-01T14:20:12;3.60;;;1.42;;
23072;SDS011;34865;51.046;3.732;2022-08-01T14:22:38;7.20;;;1.23;;
23072;SDS011;34865;51.046;3.732;2022-08-01T14:25:05;6.78;;;1.10;;
23072;SDS011;34865;51.046;3.732;2022-08-01T14:27:31;4.45;;;1.60;;
23072;SDS011;34865;51.046;3.732;2022-08-01T14:30:01;7.20;;;1.60;;
23072;SDS011;34865;51.046;3.732;2022-08-01T14:32:27;7.85;;;1.55;;
23072;SDS011;34865;51.046;3.732;2022-08-01T14:34:54;4.15;;;1.35;;
23072;SDS011;34865;51.046;3.732;2022-08-01T14:37:20;2.30;;;1.20;;
23072;SDS011;34865;51.046;3.732;2022-08-01T14:39:46;3.58;;;1.52;;
23072;SDS011;34865;51.046;3.732;2022-08-01T14:42:11;3.22;;;1.30;;
23072;SDS011;34865;51.046;3.732;2022-08-01T14:44:37;4.68;;;1.60;;
23072;SDS011;34865;51.046;3.732;2022-08-01T14:47:03;6.70;;;1.40;;
23072;SDS011;34865;51.046;3.732;2022-08-01T14:49:29;5.68;;;1.38;;
23072;SDS011;34865;51.046;3.732;2022-08-01T14:51:54;7.07;;;1.40;;
23072;SDS011;34865;51.046;3.732;2022-08-01T14:54:20;5.75;;;1.52;;
23072;SDS011;34865;51.046;3.732;2022-08-01T14:56:45;5.05;;;1.50;;
23072;SDS011;34865;51.046;3.732;2022-08-01T14:59:11;4.22;;;1.13;;
23072;SDS011;34865;51.046;3.732;2022-08-01T15:01:37;4.13;;;1.23;;
23072;SDS011;34865;51.046;3.732;2022-08-01T15:04:02;2.95;;;1.23;;
23072;SDS011;34865;51.046;3.732;2022-08-01T15:06:28;6.47;;;2.08;;
23072;SDS011;34865;51.046;3.732;2022-08-01T15:08:54;11.45;;;1.50;;
23072;SDS011;34865;51.046;3.732;2022-08-01T15:11:20;1.77;;;1.38;;
23072;SDS011;34865;51.046;3.732;2022-08-01T15:13:45;7.35;;;1.70;;
23072;SDS011;34865;51.046;3.732;2022-08-01T15:16:31;5.43;;;1.60;;
23072;SDS011;34865;51.046;3.732;2022-08-01T15:18:57;5.60;;;1.25;;
23072;SDS011;34865;51.046;3.732;2022-08-01T15:21:22;4.85;;;1.52;;
23072;SDS011;34865;51.046;3.732;2022-08-01T15:23:48;8.00;;;1.42;;
23072;SDS011;34865;51.046;3.732;2022-08-01T15:26:14;5.45;;;1.17;;
23072;SDS011;34865;51.046;3.732;2022-08-01T15:28:40;3.30;;;1.13;;
23072;SDS011;34865;51.046;3.732;2022-08-01T15:31:05;3.85;;;1.65;;
23072;SDS011;34865;51.046;3.732;2022-08-01T15:33:31;5.07;;;1.35;;